createdAt,value
2022-12-26T00:00:00.741Z,15.32
2022-12-26T00:04:04.710Z,16.92
2022-12-26T00:08:08.212Z,13.77
2022-12-26T00:12:12.632Z,15.80
2022-12-26T00:16:17.556Z,16.40
2022-12-26T00:20:20.544Z,19.05
2022-12-26T00:24:23.693Z,16.92
2022-12-26T00:28:28.444Z,17.05
2022-12-26T00:32:31.613Z,17.70
2022-12-26T00:36:35.609Z,16.23
2022-12-26T00:40:42.961Z,16.30
2022-12-26T00:44:47.271Z,18.05
2022-12-26T00:48:50.241Z,17.20
2022-12-26T00:52:53.200Z,18.50
2022-12-26T00:56:56.123Z,21.77
2022-12-26T01:01:09.285Z,18.92
2022-12-26T01:05:13.066Z,20.13
2022-12-26T01:09:15.957Z,21.75
2022-12-26T01:13:18.923Z,21.85
2022-12-26T01:17:23.322Z,17.92
2022-12-26T01:21:26.284Z,18.65
2022-12-26T01:25:29.415Z,20.65
2022-12-26T01:29:32.604Z,21.30
2022-12-26T01:33:37.057Z,17.25
2022-12-26T01:37:40.040Z,23.67
2022-12-26T01:41:42.991Z,21.00
2022-12-26T01:45:51.448Z,21.20
2022-12-26T01:49:56.709Z,19.88
2022-12-26T01:54:38.228Z,23.83
2022-12-26T01:58:31.726Z,18.13
2022-12-26T02:02:55.346Z,19.33
2022-12-26T02:07:00.511Z,24.05
2022-12-26T02:11:11.800Z,27.33
2022-12-26T02:15:17.893Z,22.85
2022-12-26T02:19:37.267Z,24.23
2022-12-26T02:24:17.276Z,20.10
2022-12-26T02:28:46.650Z,34.22
2022-12-26T02:33:23.331Z,19.02
2022-12-26T02:37:44.346Z,21.98
2022-12-26T02:41:57.300Z,16.13
2022-12-26T02:46:27.057Z,17.95
2022-12-26T02:50:58.253Z,19.95
2022-12-26T02:55:25.754Z,22.80
2022-12-26T02:59:59.055Z,22.58
2022-12-26T03:04:22.813Z,18.65
2022-12-26T03:08:50.815Z,16.58
2022-12-26T03:13:13.124Z,15.65
2022-12-26T03:17:32.840Z,19.42
2022-12-26T03:21:40.212Z,16.15
2022-12-26T03:26:13.920Z,16.58
2022-12-26T03:30:34.914Z,18.13
2022-12-26T03:34:42.727Z,16.52
2022-12-26T03:38:56.051Z,15.25
2022-12-26T03:43:28.761Z,15.80
2022-12-26T03:47:57.522Z,15.70
2022-12-26T03:52:22.309Z,16.75
2022-12-26T03:56:48.472Z,16.50
2022-12-26T04:01:14.271Z,16.83
2022-12-26T04:05:37.791Z,15.85
2022-12-26T04:10:02.702Z,15.55
2022-12-26T04:14:29.872Z,15.05
2022-12-26T04:18:57.190Z,14.98
2022-12-26T04:23:38.271Z,15.63
2022-12-26T04:27:58.860Z,16.20
2022-12-26T04:32:26.051Z,15.80
2022-12-26T04:36:51.656Z,14.88
2022-12-26T04:41:18.585Z,17.45
2022-12-26T04:45:22.752Z,16.60
2022-12-26T04:49:43.314Z,16.95
2022-12-26T04:53:47.604Z,17.45
2022-12-26T04:57:50.574Z,15.45
2022-12-26T05:02:11.039Z,17.08
2022-12-26T05:06:31.392Z,16.60
2022-12-26T05:10:35.997Z,16.30
2022-12-26T05:14:38.998Z,18.85
2022-12-26T05:18:59.489Z,17.35
2022-12-26T05:23:22.272Z,15.68
2022-12-26T05:27:49.142Z,15.52
2022-12-26T05:31:52.487Z,17.33
2022-12-26T05:35:55.493Z,16.23
2022-12-26T05:39:58.400Z,17.23
2022-12-26T05:44:02.854Z,15.23
2022-12-26T05:48:06.227Z,18.85
2022-12-26T05:52:09.168Z,17.95
2022-12-26T05:56:14.975Z,15.10
2022-12-26T06:00:19.924Z,16.25
2022-12-26T06:04:22.883Z,13.95
2022-12-26T06:08:25.829Z,16.33
2022-12-26T06:12:28.759Z,15.30
2022-12-26T06:16:33.149Z,17.20
2022-12-26T06:20:39.316Z,14.50
2022-12-26T06:24:42.602Z,18.00
2022-12-26T06:28:47.505Z,16.65
2022-12-26T06:32:52.885Z,19.23
2022-12-26T06:36:56.666Z,18.33
2022-12-26T06:41:00.842Z,15.32
2022-12-26T06:45:04.456Z,16.23
2022-12-26T06:49:09.028Z,18.00
2022-12-26T06:53:11.977Z,17.58
2022-12-26T06:57:14.891Z,20.50
2022-12-26T07:01:19.991Z,19.02
2022-12-26T07:05:24.520Z,16.60
2022-12-26T07:09:33.418Z,19.08
2022-12-26T07:13:36.882Z,22.02
2022-12-26T07:17:39.836Z,18.38
2022-12-26T07:21:44.684Z,20.08
2022-12-26T07:25:48.410Z,18.73
2022-12-26T07:29:51.590Z,17.45
2022-12-26T07:33:57.558Z,17.10
2022-12-26T07:38:02.051Z,23.58
2022-12-26T07:42:05.108Z,23.25
2022-12-26T07:46:08.819Z,20.90
2022-12-26T07:50:11.845Z,20.75
2022-12-26T07:54:16.260Z,23.08
2022-12-26T07:58:19.154Z,22.77
2022-12-26T08:02:22.522Z,20.90
2022-12-26T08:06:27.435Z,20.98
2022-12-26T08:10:32.474Z,18.45
2022-12-26T08:14:35.917Z,19.52
2022-12-26T08:18:39.852Z,24.52
2022-12-26T08:22:43.161Z,21.02
2022-12-26T08:26:47.416Z,18.85
2022-12-26T08:30:50.779Z,18.80
2022-12-26T08:34:53.673Z,25.17
2022-12-26T08:38:57.377Z,22.27
2022-12-26T08:43:22.032Z,20.90
2022-12-26T08:47:26.575Z,21.33
2022-12-26T08:51:29.578Z,24.67
2022-12-26T08:55:32.701Z,17.63
2022-12-26T08:59:37.108Z,22.98
2022-12-26T09:03:40.680Z,17.73
2022-12-26T09:07:43.618Z,18.45
2022-12-26T09:11:48.002Z,17.33
2022-12-26T09:15:52.484Z,16.73
2022-12-26T09:19:55.557Z,16.20
2022-12-26T09:23:59.126Z,17.13
2022-12-26T09:28:02.159Z,19.50
2022-12-26T09:32:07.007Z,17.50
2022-12-26T09:36:14.801Z,18.63
2022-12-26T09:40:31.340Z,17.30
2022-12-26T09:44:46.572Z,22.60
2022-12-26T09:48:57.516Z,22.85
2022-12-26T09:53:04.164Z,23.35
2022-12-26T09:57:15.268Z,22.63
2022-12-26T10:01:21.509Z,21.42
2022-12-26T10:05:29.520Z,23.70
2022-12-26T10:09:55.348Z,21.95
2022-12-26T10:14:04.714Z,22.30
2022-12-26T10:18:19.087Z,19.77
2022-12-26T10:22:46.373Z,18.90
2022-12-26T10:26:51.886Z,19.13
2022-12-26T10:30:57.202Z,20.65
2022-12-26T10:35:01.360Z,17.92
2022-12-26T10:39:13.163Z,19.80
2022-12-26T10:43:28.539Z,19.30
2022-12-26T10:47:38.946Z,21.00
2022-12-26T10:51:41.879Z,21.50
2022-12-26T10:55:46.285Z,15.55
2022-12-26T10:59:52.624Z,14.93
2022-12-26T11:03:57.076Z,18.13
2022-12-26T11:08:08.755Z,16.63
2022-12-26T11:12:22.358Z,17.88
2022-12-26T11:16:27.710Z,19.45
2022-12-26T11:20:32.851Z,18.08
2022-12-26T11:24:35.814Z,16.02
2022-12-26T11:28:40.076Z,15.98
2022-12-26T11:32:43.911Z,21.05
2022-12-26T11:36:49.531Z,15.02
2022-12-26T11:41:12.738Z,17.20
2022-12-26T11:45:23.493Z,15.15
2022-12-26T11:49:31.017Z,15.73
2022-12-26T11:53:34.884Z,18.05
2022-12-26T11:57:37.789Z,16.98
2022-12-26T12:01:42.537Z,17.05
2022-12-26T12:05:54.224Z,16.40
2022-12-26T12:10:04.200Z,16.00
2022-12-26T12:14:22.718Z,19.10
2022-12-26T12:18:40.698Z,17.63
2022-12-26T12:23:19.528Z,18.27
2022-12-26T12:27:30.536Z,15.63
2022-12-26T12:31:47.111Z,18.77
2022-12-26T12:36:01.693Z,19.58
2022-12-26T12:40:17.840Z,17.48
2022-12-26T12:44:29.410Z,17.30
2022-12-26T12:48:47.980Z,16.77
2022-12-26T12:53:01.848Z,16.90
2022-12-26T12:57:14.281Z,17.98
2022-12-26T13:01:20.292Z,16.23
2022-12-26T13:05:39.416Z,14.85
2022-12-26T13:09:49.059Z,17.23
2022-12-26T13:13:56.754Z,16.23
2022-12-26T13:18:04.675Z,17.60
2022-12-26T13:22:14.339Z,17.05
2022-12-26T13:26:22.436Z,24.77
2022-12-26T13:30:25.615Z,17.38
2022-12-26T13:34:29.173Z,14.93
2022-12-26T13:39:09.505Z,18.67
2022-12-26T13:43:39.037Z,16.08
2022-12-26T13:47:42.197Z,14.52
2022-12-26T13:51:54.439Z,15.07
2022-12-26T13:55:59.719Z,15.52
2022-12-26T14:00:30.177Z,17.70
2022-12-26T14:04:48.955Z,15.90
2022-12-26T14:09:13.307Z,18.27
2022-12-26T14:13:37.575Z,16.77
2022-12-26T14:18:03.227Z,14.95
2022-12-26T14:22:16.777Z,17.08
2022-12-26T14:26:33.576Z,20.35
2022-12-26T14:30:52.508Z,17.90
2022-12-26T14:35:07.615Z,18.15
2022-12-26T14:39:23.529Z,18.23
2022-12-26T14:43:46.969Z,16.65
2022-12-26T14:47:50.666Z,18.40
2022-12-26T14:51:55.319Z,18.75
2022-12-26T14:56:00.051Z,16.90
2022-12-26T15:00:30.999Z,16.85
2022-12-26T15:05:09.138Z,15.73
2022-12-26T15:09:40.021Z,17.58
2022-12-26T15:14:15.589Z,16.33
2022-12-26T15:18:48.826Z,17.95
2022-12-26T15:23:24.625Z,18.45
2022-12-26T15:27:45.066Z,19.65
2022-12-26T15:31:57.525Z,17.33
2022-12-26T15:36:08.266Z,19.27
2022-12-26T15:40:16.399Z,18.33
2022-12-26T15:44:29.869Z,16.13
2022-12-26T15:48:45.837Z,15.35
2022-12-26T15:53:00.917Z,16.45
2022-12-26T15:57:16.130Z,15.45
2022-12-26T16:01:39.355Z,18.65
2022-12-26T16:05:52.908Z,16.55
2022-12-26T16:09:57.085Z,16.75
2022-12-26T16:14:02.253Z,15.73
2022-12-26T16:18:18.085Z,17.60
2022-12-26T16:22:46.969Z,18.90
2022-12-26T16:26:50.331Z,18.48
2022-12-26T16:30:53.680Z,17.02
2022-12-26T16:34:58.847Z,14.35
2022-12-26T16:39:02.680Z,15.20
2022-12-26T16:43:08.155Z,17.42
2022-12-26T16:47:14.121Z,16.60
2022-12-26T16:51:39.324Z,16.77
2022-12-26T16:55:45.444Z,15.85
2022-12-26T16:59:52.174Z,14.20
2022-12-26T17:03:59.421Z,15.18
2022-12-26T17:08:05.444Z,16.80
2022-12-26T17:12:18.286Z,15.25
2022-12-26T17:16:24.361Z,17.17
2022-12-26T17:20:45.024Z,15.55
2022-12-26T17:24:50.867Z,18.08
2022-12-26T17:28:54.091Z,15.68
2022-12-26T17:33:02.803Z,14.32
2022-12-26T17:37:19.083Z,14.65
2022-12-26T17:41:24.038Z,16.13
2022-12-26T17:45:28.671Z,18.23
2022-12-26T17:49:31.673Z,18.08
2022-12-26T17:53:37.258Z,19.13
2022-12-26T17:57:41.690Z,18.90
2022-12-26T18:01:44.740Z,19.10
2022-12-26T18:05:49.157Z,14.63
2022-12-26T18:09:53.503Z,17.45
2022-12-26T18:13:58.132Z,17.50
2022-12-26T18:18:01.150Z,14.95
2022-12-26T18:22:04.296Z,19.10
2022-12-26T18:26:25.860Z,20.15
2022-12-26T18:30:30.403Z,17.35
2022-12-26T18:34:34.422Z,13.98
2022-12-26T18:38:37.375Z,15.38
2022-12-26T18:42:40.484Z,16.25
2022-12-26T18:46:44.810Z,15.45
2022-12-26T18:50:47.776Z,16.42
2022-12-26T18:54:50.693Z,16.08
2022-12-26T18:58:57.852Z,15.63
2022-12-26T19:03:02.954Z,15.07
2022-12-26T19:07:06.101Z,17.48
2022-12-26T19:11:09.053Z,5.65
2022-12-26T19:15:13.659Z,2.83
2022-12-26T19:19:18.148Z,1.80
2022-12-26T19:23:21.067Z,1.50
2022-12-26T19:27:24.668Z,1.08
2022-12-26T19:31:27.831Z,1.30
2022-12-26T19:35:32.199Z,0.77
2022-12-26T19:39:35.369Z,0.70
2022-12-26T19:43:38.433Z,1.25
2022-12-26T19:47:41.381Z,0.60
2022-12-26T19:51:47.093Z,0.60
2022-12-26T19:55:50.129Z,0.68
2022-12-26T19:59:53.133Z,4.10
2022-12-26T20:03:57.358Z,3.45
2022-12-26T20:08:01.723Z,1.40
2022-12-26T20:12:05.042Z,0.90
2022-12-26T20:16:29.884Z,0.60
2022-12-26T20:20:33.104Z,0.65
2022-12-26T20:24:37.612Z,0.30
2022-12-26T20:28:40.640Z,0.52
2022-12-26T20:32:46.719Z,0.20
2022-12-26T20:36:50.090Z,0.95
2022-12-26T20:40:54.424Z,0.47
2022-12-26T20:44:57.349Z,0.22
2022-12-26T20:49:01.854Z,0.20
2022-12-26T20:53:04.840Z,0.17
2022-12-26T20:57:09.265Z,0.30
2022-12-26T21:01:15.478Z,0.30
2022-12-26T21:05:18.647Z,0.10
2022-12-26T21:09:21.906Z,0.30
2022-12-26T21:13:26.277Z,0.20
2022-12-26T21:17:29.312Z,0.10
2022-12-26T21:21:34.488Z,0.20
2022-12-26T21:25:37.419Z,0.38
2022-12-26T21:29:42.077Z,1.00
2022-12-26T21:33:45.152Z,0.40
2022-12-26T21:37:51.537Z,0.65
2022-12-26T21:41:54.503Z,0.10
2022-12-26T21:46:01.330Z,0.35
2022-12-26T21:50:05.172Z,0.30
2022-12-26T21:54:25.692Z,0.20
2022-12-26T21:58:29.430Z,0.30
2022-12-26T22:02:53.044Z,0.20
2022-12-26T22:06:56.318Z,0.08
2022-12-26T22:11:16.483Z,0.10
2022-12-26T22:15:37.196Z,0.43
2022-12-26T22:19:41.726Z,0.17
2022-12-26T22:23:45.072Z,0.10
2022-12-26T22:27:48.568Z,0.10
2022-12-26T22:31:51.499Z,0.20
2022-12-26T22:35:56.239Z,0.15
2022-12-26T22:39:59.210Z,0.10
2022-12-26T22:44:02.462Z,0.05
2022-12-26T22:48:05.715Z,0.08
2022-12-26T22:52:15.727Z,0.25
2022-12-26T22:56:18.971Z,0.08
2022-12-26T23:00:21.911Z,0.10
2022-12-26T23:04:25.890Z,0.10
2022-12-26T23:08:31.093Z,0.20
2022-12-26T23:12:47.062Z,0.08
2022-12-26T23:16:55.281Z,0.00
2022-12-26T23:21:19.284Z,0.20
2022-12-26T23:25:23.589Z,0.30
2022-12-26T23:29:44.447Z,0.30
2022-12-26T23:33:47.482Z,0.13
2022-12-26T23:37:51.644Z,0.13
2022-12-26T23:41:56.173Z,0.70
2022-12-26T23:45:59.507Z,0.30
2022-12-26T23:50:02.482Z,0.38
2022-12-26T23:54:05.533Z,0.00
2022-12-26T23:58:10.095Z,0.10
